createdAt,value
2019-01-19T00:02:52.732Z,5.33
2019-01-19T00:06:33.511Z,6.20
2019-01-19T00:10:10.687Z,5.90
2019-01-19T00:13:57.260Z,5.60
2019-01-19T00:17:50.501Z,6.17
2019-01-19T00:21:41.586Z,6.10
2019-01-19T00:25:26.660Z,5.23
2019-01-19T00:28:45.668Z,6.10
2019-01-19T00:32:21.738Z,5.60
2019-01-19T00:36:10.641Z,6.27
2019-01-19T00:39:53.404Z,5.40
2019-01-19T00:43:41.684Z,5.67
2019-01-19T00:47:19.810Z,5.90
2019-01-19T00:51:00.521Z,6.60
2019-01-19T00:54:12.755Z,6.43
2019-01-19T00:57:50.649Z,6.43
2019-01-19T01:01:45.150Z,7.10
2019-01-19T01:05:06.510Z,5.43
2019-01-19T01:08:35.876Z,5.50
2019-01-19T01:11:50.499Z,5.73
2019-01-19T01:15:30.201Z,5.33
2019-01-19T01:19:09.410Z,5.93
2019-01-19T01:22:59.849Z,5.87
2019-01-19T01:26:47.996Z,6.23
2019-01-19T01:30:45.013Z,6.10
2019-01-19T01:34:11.684Z,5.97
2019-01-19T01:37:35.646Z,5.90
2019-01-19T01:41:20.309Z,5.33
2019-01-19T01:44:35.220Z,6.10
2019-01-19T01:48:14.877Z,5.90
2019-01-19T01:51:33.895Z,5.80
2019-01-19T01:55:04.874Z,5.73
2019-01-19T01:58:28.901Z,4.63
2019-01-19T02:02:32.085Z,4.97
2019-01-19T02:05:50.733Z,5.33
2019-01-19T02:09:40.364Z,5.80
2019-01-19T02:12:53.744Z,6.30
2019-01-19T02:16:25.558Z,6.00
2019-01-19T02:20:07.685Z,7.13
2019-01-19T02:23:24.915Z,6.63
2019-01-19T02:26:53.425Z,6.03
2019-01-19T02:30:33.035Z,6.93
2019-01-19T02:34:30.475Z,6.80
2019-01-19T02:38:12.980Z,5.97
2019-01-19T02:42:08.153Z,5.93
2019-01-19T02:45:56.572Z,6.00
2019-01-19T02:49:43.481Z,5.33
2019-01-19T02:53:21.608Z,5.77
2019-01-19T02:57:27.819Z,6.43
2019-01-19T03:00:58.626Z,5.30
2019-01-19T03:04:37.814Z,5.93
2019-01-19T03:08:12.000Z,5.80
2019-01-19T03:11:54.721Z,5.97
2019-01-19T03:15:13.063Z,5.30
2019-01-19T03:19:13.009Z,5.47
2019-01-19T03:22:53.144Z,4.83
2019-01-19T03:26:34.290Z,5.03
2019-01-19T03:30:30.477Z,4.73
2019-01-19T03:34:07.155Z,4.43
2019-01-19T03:37:50.493Z,5.00
2019-01-19T03:41:34.186Z,4.73
2019-01-19T03:45:14.174Z,4.67
2019-01-19T03:49:02.393Z,4.43
2019-01-19T03:52:24.798Z,4.77
2019-01-19T03:56:07.589Z,4.07
2019-01-19T03:59:47.499Z,4.17
2019-01-19T04:04:02.650Z,4.00
2019-01-19T04:07:50.818Z,4.47
2019-01-19T04:11:40.081Z,4.53
2019-01-19T04:15:19.458Z,4.13
2019-01-19T04:18:50.211Z,3.90
2019-01-19T04:22:01.408Z,4.07
2019-01-19T04:25:43.219Z,3.57
2019-01-19T04:28:47.786Z,3.83
2019-01-19T04:31:52.099Z,3.63
2019-01-19T04:34:56.397Z,3.47
2019-01-19T04:38:00.722Z,3.83
2019-01-19T04:41:05.034Z,3.23
2019-01-19T04:44:09.493Z,3.77
2019-01-19T04:47:13.945Z,3.60
2019-01-19T04:50:18.330Z,3.57
2019-01-19T04:53:22.760Z,3.50
2019-01-19T04:56:27.129Z,3.67
2019-01-19T04:59:31.446Z,4.50
2019-01-19T05:02:35.754Z,3.53
2019-01-19T05:05:40.168Z,3.27
2019-01-19T05:08:44.525Z,3.63
2019-01-19T05:11:48.825Z,3.00
2019-01-19T05:14:53.259Z,3.30
2019-01-19T05:17:57.733Z,3.77
2019-01-19T05:21:02.231Z,3.20
2019-01-19T05:24:06.607Z,3.27
2019-01-19T05:27:10.931Z,3.13
2019-01-19T05:30:20.418Z,3.20
2019-01-19T05:33:24.835Z,3.50
2019-01-19T05:36:29.254Z,3.50
2019-01-19T05:39:33.547Z,3.50
2019-01-19T05:42:37.929Z,3.07
2019-01-19T05:45:42.209Z,2.90
2019-01-19T05:48:46.630Z,2.93
2019-01-19T05:51:50.939Z,3.33
2019-01-19T05:54:55.250Z,3.03
2019-01-19T05:57:59.565Z,3.07
2019-01-19T06:01:03.944Z,3.30
2019-01-19T06:04:08.309Z,3.70
2019-01-19T06:07:12.588Z,3.17
2019-01-19T06:10:17.503Z,3.53
2019-01-19T06:13:21.858Z,3.33
2019-01-19T06:16:26.113Z,3.23
2019-01-19T06:19:30.723Z,3.50
2019-01-19T06:22:35.005Z,3.60
2019-01-19T06:25:39.274Z,3.10
2019-01-19T06:28:43.619Z,3.70
2019-01-19T06:31:48.058Z,3.60
2019-01-19T06:34:52.564Z,3.70
2019-01-19T06:37:56.990Z,3.70
2019-01-19T06:41:01.340Z,3.37
2019-01-19T06:44:05.954Z,3.40
2019-01-19T06:47:10.249Z,3.63
2019-01-19T06:50:16.452Z,3.53
2019-01-19T06:53:20.821Z,3.80
2019-01-19T06:56:25.109Z,4.30
2019-01-19T06:59:29.453Z,3.70
2019-01-19T07:02:33.829Z,3.77
2019-01-19T07:05:38.087Z,4.03
2019-01-19T07:08:42.403Z,3.77
2019-01-19T07:11:46.854Z,3.90
2019-01-19T07:14:51.197Z,3.60
2019-01-19T07:17:55.537Z,3.50
2019-01-19T07:20:59.877Z,4.00
2019-01-19T07:24:04.399Z,4.20
2019-01-19T07:27:08.687Z,3.83
2019-01-19T07:30:15.057Z,4.20
2019-01-19T07:33:19.299Z,4.00
2019-01-19T07:36:23.603Z,3.50
2019-01-19T07:39:27.924Z,4.10
2019-01-19T07:42:34.004Z,3.50
2019-01-19T07:45:38.409Z,3.60
2019-01-19T07:48:42.982Z,3.43
2019-01-19T07:51:47.257Z,4.33
2019-01-19T07:54:51.582Z,3.40
2019-01-19T07:57:55.966Z,3.20
2019-01-19T08:01:00.236Z,3.33
2019-01-19T08:04:04.732Z,3.90
2019-01-19T08:07:09.189Z,3.33
2019-01-19T08:10:14.667Z,3.70
2019-01-19T08:13:19.075Z,3.53
2019-01-19T08:16:23.349Z,3.80
2019-01-19T08:19:27.663Z,3.77
2019-01-19T08:22:31.994Z,3.43
2019-01-19T08:25:36.417Z,4.37
2019-01-19T08:28:40.755Z,3.70
2019-01-19T08:31:45.012Z,3.57
2019-01-19T08:34:49.397Z,4.00
2019-01-19T08:37:53.773Z,4.00
2019-01-19T08:40:58.006Z,4.00
2019-01-19T08:44:04.473Z,4.03
2019-01-19T08:47:08.778Z,4.37
2019-01-19T08:50:13.398Z,3.70
2019-01-19T08:53:17.706Z,4.27
2019-01-19T08:56:22.053Z,4.83
2019-01-19T08:59:26.335Z,4.60
2019-01-19T09:02:30.650Z,4.10
2019-01-19T09:05:35.067Z,4.10
2019-01-19T09:08:39.348Z,4.10
2019-01-19T09:11:43.609Z,4.33
2019-01-19T09:14:48.064Z,3.80
2019-01-19T09:17:52.462Z,3.77
2019-01-19T09:20:56.753Z,4.00
2019-01-19T09:24:17.921Z,3.40
2019-01-19T09:27:23.557Z,4.13
2019-01-19T09:30:27.898Z,3.70
2019-01-19T09:33:32.292Z,3.40
2019-01-19T09:36:36.641Z,4.57
2019-01-19T09:39:43.812Z,2.93
2019-01-19T09:42:48.183Z,3.27
2019-01-19T09:45:52.616Z,3.60
2019-01-19T09:48:57.128Z,3.70
2019-01-19T09:52:01.632Z,3.70
2019-01-19T09:55:06.593Z,3.87
2019-01-19T09:58:10.948Z,5.83
2019-01-19T10:01:15.223Z,3.97
2019-01-19T10:04:19.554Z,3.80
2019-01-19T10:07:23.811Z,3.77
2019-01-19T10:10:28.187Z,3.70
2019-01-19T10:13:36.072Z,3.97
2019-01-19T10:16:40.412Z,3.60
2019-01-19T10:19:44.725Z,3.80
2019-01-19T10:22:49.052Z,3.60
2019-01-19T10:25:53.361Z,4.20
2019-01-19T10:28:57.894Z,4.07
2019-01-19T10:32:02.257Z,3.70
2019-01-19T10:35:08.603Z,4.27
2019-01-19T10:38:12.899Z,3.73
2019-01-19T10:41:17.284Z,4.20
2019-01-19T10:44:21.559Z,4.23
2019-01-19T10:47:28.244Z,4.13
2019-01-19T10:50:32.289Z,4.30
2019-01-19T10:53:38.443Z,4.27
2019-01-19T10:56:42.731Z,4.40
2019-01-19T10:59:47.066Z,4.80
2019-01-19T11:02:51.533Z,4.20
2019-01-19T11:05:55.839Z,3.93
2019-01-19T11:09:00.257Z,3.43
2019-01-19T11:12:04.532Z,5.07
2019-01-19T11:15:10.513Z,4.77
2019-01-19T11:18:14.782Z,3.80
2019-01-19T11:21:19.068Z,4.00
2019-01-19T11:24:25.373Z,3.37
2019-01-19T11:27:29.800Z,3.73
2019-01-19T11:30:34.282Z,3.60
2019-01-19T11:33:38.738Z,3.50
2019-01-19T11:36:45.323Z,4.10
2019-01-19T11:39:49.698Z,3.77
2019-01-19T11:42:53.951Z,3.87
2019-01-19T11:45:58.281Z,4.20
2019-01-19T11:49:02.601Z,3.90
2019-01-19T11:52:06.910Z,3.43
2019-01-19T11:55:13.683Z,3.87
2019-01-19T11:58:18.033Z,3.67
2019-01-19T12:01:22.384Z,4.10
2019-01-19T12:04:26.797Z,3.83
2019-01-19T12:07:31.179Z,3.43
2019-01-19T12:10:35.598Z,3.03
2019-01-19T12:13:40.007Z,3.20
2019-01-19T12:16:44.357Z,3.50
2019-01-19T12:19:48.666Z,3.37
2019-01-19T12:22:52.992Z,4.00
2019-01-19T12:25:57.348Z,3.40
2019-01-19T12:29:01.611Z,2.97
2019-01-19T12:32:05.916Z,3.20
2019-01-19T12:35:10.287Z,3.10
2019-01-19T12:38:14.616Z,3.23
2019-01-19T12:41:18.963Z,3.20
2019-01-19T12:44:23.298Z,3.30
2019-01-19T12:47:27.660Z,2.90
2019-01-19T12:50:34.842Z,2.80
2019-01-19T12:53:39.196Z,2.60
2019-01-19T12:56:43.528Z,3.23
2019-01-19T12:59:47.860Z,3.00
2019-01-19T13:02:52.480Z,2.90
2019-01-19T13:06:09.682Z,2.80
2019-01-19T13:09:31.780Z,3.70
2019-01-19T13:12:56.190Z,3.20
2019-01-19T13:16:46.767Z,3.30
2019-01-19T13:20:24.508Z,3.33
2019-01-19T13:23:57.501Z,3.33
2019-01-19T13:27:32.331Z,3.30
2019-01-19T13:31:10.691Z,4.20
2019-01-19T13:34:53.371Z,3.67
2019-01-19T13:38:49.161Z,4.30
2019-01-19T13:42:36.158Z,3.80
2019-01-19T13:46:31.192Z,3.20
2019-01-19T13:50:34.482Z,2.90
2019-01-19T13:54:00.692Z,3.10
2019-01-19T13:57:30.357Z,3.20
2019-01-19T14:01:19.066Z,2.87
2019-01-19T14:04:47.815Z,6.57
2019-01-19T14:08:49.091Z,4.40
2019-01-19T14:12:12.875Z,5.70
2019-01-19T14:15:45.045Z,3.13
2019-01-19T14:19:26.337Z,3.27
2019-01-19T14:22:59.547Z,5.50
2019-01-19T14:26:41.890Z,6.80
2019-01-19T14:30:03.261Z,4.63
2019-01-19T14:33:31.182Z,7.13
2019-01-19T14:37:21.452Z,7.80
2019-01-19T14:41:21.791Z,9.03
2019-01-19T14:44:49.957Z,6.37
2019-01-19T14:48:25.776Z,7.40
2019-01-19T14:52:04.556Z,6.10
2019-01-19T14:55:49.192Z,5.03
2019-01-19T14:59:37.796Z,3.07
2019-01-19T15:03:16.223Z,2.90
2019-01-19T15:07:07.488Z,3.20
2019-01-19T15:10:28.325Z,3.17
2019-01-19T15:14:31.320Z,3.27
2019-01-19T15:18:15.241Z,3.10
2019-01-19T15:21:56.236Z,3.57
2019-01-19T15:25:53.270Z,2.50
2019-01-19T15:29:06.716Z,2.83
2019-01-19T15:32:48.129Z,2.80
2019-01-19T15:36:11.247Z,2.90
2019-01-19T15:39:52.122Z,3.83
2019-01-19T15:43:18.915Z,2.40
2019-01-19T15:47:07.094Z,2.73
2019-01-19T15:51:13.210Z,2.40
2019-01-19T15:55:01.535Z,3.40
2019-01-19T15:58:47.970Z,2.50
2019-01-19T16:02:34.362Z,4.00
2019-01-19T16:06:37.466Z,6.67
2019-01-19T16:10:29.355Z,5.47
2019-01-19T16:14:20.487Z,3.83
2019-01-19T16:17:51.055Z,2.20
2019-01-19T16:21:51.191Z,2.10
2019-01-19T16:25:45.616Z,3.43
2019-01-19T16:29:12.165Z,2.00
2019-01-19T16:32:55.001Z,2.00
2019-01-19T16:36:09.926Z,3.00
2019-01-19T16:40:00.549Z,2.53
2019-01-19T16:43:27.301Z,3.30
2019-01-19T16:47:03.061Z,2.80
2019-01-19T16:50:36.609Z,3.17
2019-01-19T16:54:45.864Z,3.47
2019-01-19T16:58:21.805Z,2.90
2019-01-19T17:02:17.419Z,3.40
2019-01-19T17:06:12.623Z,2.80
2019-01-19T17:09:56.611Z,3.03
2019-01-19T17:13:21.736Z,2.53
2019-01-19T17:16:51.177Z,2.80
2019-01-19T17:20:20.282Z,3.30
2019-01-19T17:24:04.187Z,3.17
2019-01-19T17:27:40.817Z,3.20
2019-01-19T17:31:20.624Z,2.97
2019-01-19T17:35:10.571Z,3.33
2019-01-19T17:38:40.152Z,4.40
2019-01-19T17:42:22.047Z,3.73
2019-01-19T17:45:38.800Z,2.90
2019-01-19T17:49:20.456Z,3.40
2019-01-19T17:52:44.599Z,3.53
2019-01-19T17:56:29.821Z,2.73
2019-01-19T18:00:13.650Z,2.97
2019-01-19T18:03:52.450Z,3.33
2019-01-19T18:07:37.701Z,2.80
2019-01-19T18:11:21.608Z,3.70
2019-01-19T18:15:05.196Z,3.87
2019-01-19T18:18:44.705Z,3.00
2019-01-19T18:22:15.557Z,3.00
2019-01-19T18:25:38.595Z,2.80
2019-01-19T18:29:00.109Z,3.00
2019-01-19T18:32:48.255Z,4.17
2019-01-19T18:36:14.902Z,4.40
2019-01-19T18:39:54.700Z,4.87
2019-01-19T18:43:32.165Z,2.90
2019-01-19T18:47:18.483Z,3.53
2019-01-19T18:50:58.371Z,2.90
2019-01-19T18:54:25.873Z,5.70
2019-01-19T18:58:08.406Z,7.67
2019-01-19T19:01:44.429Z,6.77
2019-01-19T19:05:27.940Z,3.80
2019-01-19T19:08:46.141Z,6.00
2019-01-19T19:12:16.197Z,3.80
2019-01-19T19:16:00.268Z,4.20
2019-01-19T19:19:33.090Z,4.70
2019-01-19T19:22:54.560Z,4.00
2019-01-19T19:26:25.655Z,6.23
2019-01-19T19:30:06.601Z,4.83
2019-01-19T19:33:30.019Z,3.57
2019-01-19T19:37:07.225Z,3.27
2019-01-19T19:41:06.480Z,3.70
2019-01-19T19:44:27.041Z,4.27
2019-01-19T19:48:02.650Z,3.60
2019-01-19T19:51:48.573Z,3.27
2019-01-19T19:54:51.847Z,3.90
2019-01-19T19:57:56.210Z,3.13
2019-01-19T20:01:00.506Z,3.57
2019-01-19T20:04:04.762Z,3.50
2019-01-19T20:07:09.354Z,2.67
2019-01-19T20:10:17.157Z,3.07
2019-01-19T20:13:20.016Z,3.23
2019-01-19T20:16:24.411Z,2.97
2019-01-19T20:19:29.108Z,3.50
2019-01-19T20:22:33.391Z,3.20
2019-01-19T20:25:37.746Z,3.73
2019-01-19T20:28:42.107Z,4.60
2019-01-19T20:31:48.456Z,4.13
2019-01-19T20:34:52.736Z,4.10
2019-01-19T20:37:57.053Z,3.80
2019-01-19T20:41:01.432Z,2.87
2019-01-19T20:44:05.897Z,3.37
2019-01-19T20:47:10.283Z,3.97
2019-01-19T20:50:14.639Z,3.17
2019-01-19T20:53:18.961Z,3.90
2019-01-19T20:56:25.257Z,3.40
2019-01-19T20:59:29.561Z,3.40
2019-01-19T21:02:34.004Z,3.97
2019-01-19T21:05:38.541Z,3.67
2019-01-19T21:08:42.866Z,3.50
2019-01-19T21:11:47.330Z,4.10
2019-01-19T21:14:51.785Z,3.50
2019-01-19T21:17:56.150Z,5.50
2019-01-19T21:21:00.451Z,4.20
2019-01-19T21:24:04.872Z,3.80
2019-01-19T21:27:09.187Z,5.67
2019-01-19T21:30:13.664Z,4.57
2019-01-19T21:33:17.985Z,4.57
2019-01-19T21:36:22.374Z,3.93
2019-01-19T21:39:26.670Z,4.13
2019-01-19T21:42:30.998Z,3.37
2019-01-19T21:45:35.408Z,2.83
2019-01-19T21:48:39.682Z,2.80
2019-01-19T21:51:43.970Z,3.20
2019-01-19T21:54:48.233Z,3.70
2019-01-19T21:57:52.570Z,4.77
2019-01-19T22:00:56.810Z,3.40
2019-01-19T22:04:02.447Z,4.47
2019-01-19T22:07:06.849Z,5.93
2019-01-19T22:10:19.305Z,3.50
2019-01-19T22:13:43.380Z,4.00
2019-01-19T22:17:03.684Z,4.40
2019-01-19T22:20:14.828Z,4.67
2019-01-19T22:23:21.548Z,4.93
2019-01-19T22:26:26.165Z,4.57
2019-01-19T22:29:30.513Z,4.00
2019-01-19T22:32:34.878Z,4.70
2019-01-19T22:35:39.265Z,4.47
2019-01-19T22:38:43.848Z,4.00
2019-01-19T22:41:48.179Z,16.27
2019-01-19T22:44:52.466Z,7.97
2019-01-19T22:47:56.779Z,5.50
2019-01-19T22:51:01.090Z,5.73
2019-01-19T22:54:05.405Z,4.90
2019-01-19T22:57:09.715Z,4.10
2019-01-19T23:00:39.565Z,6.97
2019-01-19T23:03:43.862Z,5.13
2019-01-19T23:06:48.184Z,5.27
2019-01-19T23:09:52.464Z,5.40
2019-01-19T23:12:56.829Z,7.13
2019-01-19T23:16:01.155Z,7.53
2019-01-19T23:19:05.553Z,7.13
2019-01-19T23:22:09.906Z,7.50
2019-01-19T23:25:14.210Z,8.80
2019-01-19T23:28:18.510Z,8.23
2019-01-19T23:31:22.825Z,7.27
2019-01-19T23:34:27.124Z,8.47
2019-01-19T23:37:31.443Z,8.27
2019-01-19T23:40:35.782Z,7.40
2019-01-19T23:43:40.050Z,13.43
2019-01-19T23:46:44.391Z,10.30
2019-01-19T23:49:48.710Z,8.23
2019-01-19T23:52:53.051Z,6.07
2019-01-19T23:55:57.362Z,6.00
2019-01-19T23:59:01.650Z,5.90
